| time (UTC) | temp F | wind direction | speed knots | gust knots | rain 1hr in | rain 24hr in | rain mn in | humidity % | barometer mb |
| 20260502181730 | 73 | 289 | 3.5 | 12.2 | 0.00 | 1.25 | 0.00 | 59 | 1019.7 |
| 20260502181227 | 73 | 52 | 2.6 | 12.2 | 0.00 | 1.26 | 0.00 | 60 | 1019.8 |
| 20260502180723 | 72 | 325 | 1.7 | 7.8 | 0.00 | 1.32 | 0.00 | 59 | 1019.8 |
| 20260502180718 | 72 | 67 | 2.6 | 8.7 | 0.00 | 1.47 | 0.00 | 56 | 1019.9 |
| 20260502170205 | 70 | 52 | 2.6 | 11.3 | 0.00 | 1.60 | 0.00 | 61 | 1020.4 |
| 20260502164207 | 69 | 41 | 3.5 | 9.6 | 0.00 | 1.61 | 0.00 | 64 | 1020.3 |
| 20260502163701 | 69 | 319 | 2.6 | 9.6 | 0.00 | 1.61 | 0.00 | 67 | 1020.2 |
| 20260502163159 | 69 | 338 | 2.6 | 7.8 | 0.00 | 1.62 | 0.00 | 66 | 1020.3 |
| 20260502162659 | 68 | 15 | 2.6 | 10.4 | 0.00 | 1.63 | 0.00 | 70 | 1020.2 |
| 20260502162201 | 68 | 355 | 2.6 | 10.4 | 0.00 | 1.65 | 0.00 | 73 | 1020.2 |
| 20260502161931 | 66 | 15 | 2.6 | 8.7 | 0.00 | 1.71 | 0.00 | 78 | 1020.2 |
| 20260502161159 | 64 | 0 | 2.6 | 8.7 | 0.00 | 1.78 | 0.00 | 83 | 1020.2 |
| 20260502160656 | 64 | 0 | 1.7 | 7.0 | 0.00 | 1.83 | 0.00 | 85 | 1020.2 |
| 20260502160200 | 63 | 36 | 1.7 | 10.4 | 0.00 | 1.84 | 0.00 | 86 | 1020.3 |
| 20260502152200 | 60 | 355 | 3.5 | 7.8 | 0.00 | 1.84 | 0.00 | 91 | 1020.2 |
| 20260502151657 | 60 | 319 | 1.7 | 10.4 | 0.00 | 1.84 | 0.00 | 91 | 1020.2 |
| 20260502151158 | 59 | 63 | 1.7 | 10.4 | 0.00 | 1.84 | 0.00 | 91 | 1020.1 |
| 20260502150659 | 59 | 344 | 2.6 | 10.4 | 0.00 | 1.84 | 0.00 | 91 | 1020.2 |
| 20260502150157 | 59 | 66 | 2.6 | 10.4 | 0.00 | 1.84 | 0.00 | 91 | 1020.3 |
| 20260502130647 | 55 | 335 | 1.7 | 6.1 | 0.00 | 1.92 | 0.00 | 91 | 1019.0 |
| 20260502130413 | 55 | 321 | 0.9 | 4.3 | 0.00 | 1.92 | 0.00 | 91 | 1018.8 |
| 20260502123641 | 54 | 43 | 0.9 | 5.2 | 0.00 | 1.93 | 0.00 | 91 | 1018.6 |
| 20260502123138 | 54 | 342 | 0.9 | 5.2 | 0.00 | 1.93 | 0.00 | 91 | 1018.5 |
| 20260502122639 | 54 | 307 | 1.7 | 6.1 | 0.00 | 1.93 | 0.00 | 91 | 1018.4 |
| 20260502122138 | 54 | 347 | 1.7 | 6.1 | 0.00 | 1.93 | 0.00 | 91 | 1018.3 |
| 20260502121640 | 54 | 24 | 0.9 | 3.5 | 0.00 | 1.93 | 0.00 | 91 | 1018.2 |
| 20260502121133 | 54 | 51 | 0.9 | 3.5 | 0.00 | 1.93 | 0.00 | 91 | 1018.1 |
| 20260502120636 | 54 | 355 | 0.9 | 3.5 | 0.00 | 1.93 | 0.00 | 91 | 1018.1 |
| 20260502120132 | 54 | 22 | 0.9 | 3.5 | 0.00 | 1.93 | 0.00 | 91 | 1018.1 |
| 20260502115903 | 54 | 329 | 0.9 | 2.6 | 0.00 | 1.93 | 0.00 | 91 | 1018.1 |
| 20260502115136 | 54 | 327 | 0.0 | 2.6 | 0.00 | 1.93 | 0.00 | 91 | 1017.9 |
| 20260502115132 | 54 | 329 | 0.9 | 2.6 | 0.00 | 1.93 | 0.00 | 91 | 1018.0 |
| 20260502114129 | 54 | 338 | 0.0 | 2.6 | 0.00 | 1.93 | 0.00 | 91 | 1018.0 |
| 20260502113903 | 54 | 338 | 0.0 | 4.3 | 0.00 | 1.93 | 0.00 | 91 | 1018.1 |
| 20260502113359 | 54 | 338 | 0.0 | 4.3 | 0.00 | 1.93 | 0.00 | 91 | 1018.1 |
| 20260502112630 | 54 | 338 | 0.9 | 4.3 | 0.00 | 1.93 | 0.00 | 91 | 1018.0 |
| 20260502112123 | 54 | 338 | 0.9 | 4.3 | 0.00 | 1.93 | 0.00 | 91 | 1017.8 |
| 20260502111625 | 54 | 342 | 0.9 | 3.5 | 0.00 | 1.93 | 0.00 | 91 | 1017.8 |
| 20260502111112 | 55 | 342 | 0.9 | 3.5 | 0.00 | 1.93 | 0.00 | 91 | 1017.7 |
| 20260502110613 | 55 | 11 | 0.9 | 3.5 | 0.00 | 1.93 | 0.00 | 91 | 1017.6 |
| 20260502110115 | 55 | 355 | 1.7 | 4.3 | 0.00 | 1.93 | 0.00 | 91 | 1017.4 |
| 20260502105612 | 55 | 9 | 1.7 | 4.3 | 0.00 | 1.93 | 0.00 | 91 | 1017.4 |
| 20260502105104 | 55 | 5 | 0.9 | 4.3 | 0.00 | 1.93 | 0.00 | 91 | 1017.3 |
| 20260502104603 | 55 | 30 | 1.7 | 4.3 | 0.00 | 1.94 | 0.00 | 91 | 1017.3 |
| 20260502104100 | 55 | 335 | 1.7 | 4.3 | 0.00 | 1.94 | 0.00 | 91 | 1017.2 |
| 20260502103602 | 55 | 14 | 0.9 | 3.5 | 0.00 | 1.94 | 0.00 | 91 | 1017.1 |
| 20260502103557 | 55 | 23 | 0.9 | 3.5 | 0.00 | 1.94 | 0.00 | 91 | 1017.1 |
| 20260502102550 | 55 | 26 | 1.7 | 4.3 | 0.00 | 1.94 | 0.00 | 91 | 1017.1 |
| 20260502102052 | 55 | 331 | 0.9 | 4.3 | 0.00 | 1.95 | 0.00 | 91 | 1017.1 |
| 20260502101548 | 55 | 313 | 0.9 | 3.5 | 0.00 | 1.96 | 0.00 | 91 | 1017.1 |
| 20260502101046 | 55 | 312 | 0.0 | 3.5 | 0.00 | 1.96 | 0.00 | 91 | 1016.8 |
| 20260502100552 | 55 | 37 | 0.9 | 3.5 | 0.00 | 1.97 | 0.00 | 91 | 1016.6 |
| 20260502100546 | 55 | 27 | 0.0 | 1.7 | 0.00 | 1.97 | 0.00 | 91 | 1016.8 |
| 20260502091033 | 56 | 67 | 1.7 | 5.2 | 0.00 | 2.03 | 0.00 | 91 | 1016.0 |
| 20260502090535 | 56 | 36 | 1.7 | 4.3 | 0.00 | 2.03 | 0.00 | 91 | 1015.9 |
| 20260502071515 | 56 | 334 | 0.9 | 5.2 | 0.00 | 2.09 | 0.00 | 91 | 1015.6 |
| 20260502071018 | 56 | 28 | 1.7 | 5.2 | 0.00 | 2.10 | 0.00 | 91 | 1015.7 |
| 20260502070517 | 56 | 38 | 2.6 | 5.2 | 0.00 | 2.10 | 0.00 | 91 | 1015.7 |
| 20260502070016 | 56 | 53 | 1.7 | 7.0 | 0.00 | 2.11 | 0.00 | 91 | 1015.8 |
| 20260502065514 | 56 | 22 | 1.7 | 7.0 | 0.00 | 2.11 | 0.00 | 91 | 1015.8 |
| 20260502065249 | 56 | 327 | 2.6 | 7.0 | 0.00 | 2.11 | 0.00 | 91 | 1015.8 |
| 20260502064516 | 56 | 306 | 2.6 | 7.0 | 0.00 | 2.11 | 0.00 | 91 | 1015.8 |
| 20260502064010 | 56 | 259 | 1.7 | 6.1 | 0.00 | 2.11 | 0.00 | 91 | 1015.7 |
| 20260502063740 | 57 | 18 | 1.7 | 7.0 | 0.00 | 2.11 | 0.00 | 91 | 1015.6 |
| 20260502063013 | 57 | 21 | 1.7 | 7.0 | 0.00 | 2.11 | 0.00 | 91 | 1015.5 |
| 20260502062509 | 57 | 30 | 1.7 | 8.7 | 0.00 | 2.11 | 0.00 | 91 | 1015.4 |
| 20260502062012 | 57 | 0 | 1.7 | 8.7 | 0.00 | 2.11 | 0.00 | 91 | 1015.4 |
| 20260502061508 | 57 | 0 | 1.7 | 7.0 | 0.00 | 2.11 | 0.00 | 91 | 1015.4 |
| 20260502061016 | 57 | 36 | 2.6 | 8.7 | 0.00 | 2.12 | 0.00 | 91 | 1015.3 |
| 20260502061008 | 57 | 24 | 2.6 | 7.0 | 0.00 | 2.11 | 0.00 | 91 | 1015.3 |
| 20260502060007 | 57 | 5 | 2.6 | 8.7 | 0.00 | 2.12 | 0.00 | 91 | 1015.2 |
| 20260502055504 | 57 | 32 | 1.7 | 7.0 | 0.00 | 2.12 | 0.00 | 91 | 1015.2 |
| 20260502055235 | 57 | 51 | 1.7 | 8.7 | 0.00 | 2.12 | 0.00 | 91 | 1015.2 |
| 20260502054508 | 57 | 28 | 1.7 | 8.7 | 0.00 | 2.12 | 0.00 | 91 | 1015.3 |
| 20260502054005 | 57 | 18 | 1.7 | 8.7 | 0.00 | 2.13 | 0.00 | 91 | 1015.3 |
| 20260502053506 | 57 | 355 | 1.7 | 8.7 | 0.00 | 2.14 | 0.00 | 91 | 1015.3 |
| 20260502053004 | 57 | 315 | 1.7 | 6.1 | 0.00 | 2.16 | 0.00 | 91 | 1015.2 |
| 20260502052504 | 57 | 19 | 1.7 | 6.1 | 0.00 | 2.20 | 0.00 | 91 | 1015.3 |
| 20260502052003 | 57 | 34 | 1.7 | 6.1 | 0.00 | 2.22 | 0.00 | 91 | 1015.3 |
| 20260502051502 | 57 | 38 | 1.7 | 6.1 | 0.00 | 2.22 | 0.00 | 91 | 1015.3 |
| 20260502051231 | 57 | 302 | 1.7 | 5.2 | 0.00 | 2.22 | 0.00 | 91 | 1015.2 |
| 20260502050502 | 57 | 41 | 1.7 | 6.1 | 0.00 | 2.22 | 0.00 | 91 | 1015.1 |
| 20260502045958 | 57 | 18 | 1.7 | 6.1 | 0.00 | 2.22 | 2.22 | 91 | 1015.1 |
| 20260502045457 | 57 | 5 | 1.7 | 10.4 | 0.00 | 2.22 | 2.22 | 91 | 1015.1 |
| 20260502044955 | 57 | 355 | 1.7 | 10.4 | 0.00 | 2.22 | 2.22 | 91 | 1015.1 |
| 20260502044456 | 57 | 26 | 2.6 | 9.6 | 0.01 | 2.22 | 2.22 | 91 | 1015.3 |
| 20260502043954 | 57 | 327 | 1.7 | 7.0 | 0.01 | 2.22 | 2.22 | 91 | 1015.3 |
| 20260502043454 | 57 | 55 | 1.7 | 7.0 | 0.01 | 2.22 | 2.22 | 91 | 1015.4 |
| 20260502042953 | 58 | 44 | 1.7 | 7.0 | 0.01 | 2.22 | 2.22 | 91 | 1015.4 |
| 20260502042453 | 58 | 39 | 1.7 | 7.0 | 0.01 | 2.22 | 2.22 | 91 | 1015.3 |
| 20260502041953 | 58 | 13 | 2.6 | 7.8 | 0.01 | 2.22 | 2.22 | 91 | 1015.3 |
| 20260502041454 | 58 | 17 | 2.6 | 9.6 | 0.01 | 2.22 | 2.22 | 91 | 1015.2 |
| 20260502041226 | 58 | 56 | 2.6 | 9.6 | 0.01 | 2.22 | 2.22 | 91 | 1015.1 |
| 20260502040726 | 58 | 336 | 2.6 | 7.8 | 0.01 | 2.22 | 2.22 | 91 | 1015.1 |
| 20260502035951 | 58 | 5 | 2.6 | 7.8 | 0.01 | 2.22 | 2.22 | 91 | 1015.3 |
| 20260502035450 | 58 | 17 | 2.6 | 7.8 | 0.01 | 2.22 | 2.22 | 91 | 1015.2 |
| 20260502034949 | 58 | 15 | 2.6 | 7.8 | 0.01 | 2.22 | 2.22 | 91 | 1015.3 |
| 20260502034447 | 58 | 346 | 2.6 | 8.7 | 0.00 | 2.21 | 2.21 | 91 | 1015.0 |
| 20260502033947 | 58 | 33 | 2.6 | 8.7 | 0.00 | 2.21 | 2.21 | 91 | 1014.9 |
| 20260502033447 | 58 | 30 | 1.7 | 8.7 | 0.00 | 2.21 | 2.21 | 91 | 1014.8 |
| 20260502032950 | 58 | 21 | 2.6 | 8.7 | 0.01 | 2.21 | 2.21 | 91 | 1014.8 |
| 20260502032945 | 58 | 64 | 2.6 | 8.7 | 0.01 | 2.21 | 2.21 | 91 | 1014.8 |
| 20260502031945 | 58 | 5 | 2.6 | 8.7 | 0.01 | 2.21 | 2.21 | 91 | 1014.6 |
| 20260502031444 | 58 | 19 | 2.6 | 7.0 | 0.01 | 2.21 | 2.21 | 91 | 1014.3 |
| 20260502030946 | 58 | 38 | 2.6 | 7.0 | 0.01 | 2.21 | 2.21 | 91 | 1014.3 |
| 20260502030442 | 58 | 12 | 1.7 | 7.8 | 0.02 | 2.21 | 2.21 | 91 | 1014.2 |
| 20260502030215 | 58 | 5 | 1.7 | 7.8 | 0.02 | 2.21 | 2.21 | 91 | 1013.5 |
| 20260502025442 | 58 | 0 | 2.6 | 7.8 | 0.02 | 2.21 | 2.21 | 91 | 1013.5 |
| 20260502024943 | 59 | 355 | 2.6 | 8.7 | 0.03 | 2.21 | 2.21 | 91 | 1013.5 |
| 20260502024444 | 59 | 51 | 2.6 | 8.7 | 0.03 | 2.21 | 2.21 | 91 | 1013.6 |
| 20260502023940 | 59 | 240 | 2.6 | 8.7 | 0.03 | 2.21 | 2.21 | 91 | 1013.5 |
| 20260502023436 | 59 | 21 | 1.7 | 7.8 | 0.03 | 2.21 | 2.21 | 91 | 1013.4 |
| 20260502022934 | 59 | 51 | 1.7 | 6.1 | 0.02 | 2.20 | 2.20 | 91 | 1013.4 |
| 20260502022435 | 59 | 0 | 2.6 | 7.8 | 0.03 | 2.20 | 2.20 | 91 | 1013.3 |
| 20260502021930 | 60 | 42 | 2.6 | 7.8 | 0.03 | 2.20 | 2.20 | 91 | 1013.2 |
| 20260502021430 | 60 | 14 | 1.7 | 7.8 | 0.04 | 2.20 | 2.20 | 91 | 1013.5 |
| 20260502020931 | 60 | 36 | 1.7 | 4.3 | 0.04 | 2.20 | 2.20 | 91 | 1013.6 |
| 20260502020430 | 60 | 19 | 1.7 | 5.2 | 0.03 | 2.19 | 2.19 | 91 | 1013.3 |
| 20260502015932 | 60 | 33 | 1.7 | 6.1 | 0.04 | 2.19 | 2.19 | 91 | 1013.2 |
| 20260502015431 | 60 | 55 | 1.7 | 6.1 | 0.04 | 2.19 | 2.19 | 91 | 1013.1 |
| 20260502014929 | 60 | 48 | 1.7 | 5.2 | 0.03 | 2.18 | 2.18 | 91 | 1013.3 |
| 20260502014427 | 60 | 338 | 1.7 | 7.8 | 0.03 | 2.18 | 2.18 | 91 | 1013.3 |
| 20260502013926 | 60 | 29 | 2.6 | 7.8 | 0.03 | 2.18 | 2.18 | 91 | 1013.1 |
| 20260502013429 | 60 | 325 | 1.7 | 7.8 | 0.04 | 2.18 | 2.18 | 91 | 1012.8 |
| 20260502013424 | 60 | 355 | 1.7 | 7.8 | 0.03 | 2.18 | 2.18 | 91 | 1012.8 |
| 20260502012423 | 60 | 13 | 1.7 | 7.8 | 0.03 | 2.17 | 2.17 | 91 | 1012.5 |
| 20260502011921 | 60 | 321 | 1.7 | 7.8 | 0.04 | 2.17 | 2.17 | 91 | 1012.4 |
| 20260502011421 | 60 | 336 | 2.6 | 7.8 | 0.03 | 2.16 | 2.16 | 91 | 1012.2 |
| 20260502010922 | 60 | 19 | 2.6 | 7.8 | 0.04 | 2.16 | 2.16 | 91 | 1012.2 |
| 20260502010418 | 60 | 13 | 2.6 | 7.8 | 0.06 | 2.16 | 2.16 | 91 | 1012.3 |
| 20260502005918 | 60 | 304 | 1.7 | 7.8 | 0.08 | 2.15 | 2.15 | 91 | 1012.7 |
| 20260502005416 | 60 | 321 | 1.7 | 7.0 | 0.11 | 2.15 | 2.15 | 91 | 1012.7 |
| 20260502004914 | 60 | 309 | 2.6 | 10.4 | 0.12 | 2.15 | 2.15 | 91 | 1012.3 |
| 20260502004415 | 60 | 337 | 1.7 | 10.4 | 0.12 | 2.15 | 2.15 | 91 | 1011.7 |
| 20260502003915 | 60 | 11 | 1.7 | 6.1 | 0.13 | 2.15 | 2.15 | 91 | 1011.3 |
| 20260502003410 | 60 | 346 | 1.7 | 3.5 | 0.13 | 2.15 | 2.15 | 91 | 1011.1 |
| 20260502002911 | 60 | 13 | 2.6 | 7.8 | 0.13 | 2.14 | 2.14 | 91 | 1011.2 |
| 20260502002413 | 60 | 323 | 2.6 | 7.8 | 0.13 | 2.14 | 2.14 | 91 | 1011.2 |
| 20260502001911 | 61 | 18 | 1.7 | 7.0 | 0.13 | 2.13 | 2.13 | 91 | 1011.2 |
| 20260502001403 | 61 | 23 | 2.6 | 7.0 | 0.14 | 2.13 | 2.13 | 91 | 1011.4 |
| 20260502000904 | 61 | 313 | 1.7 | 7.0 | 0.13 | 2.12 | 2.12 | 91 | 1011.5 |
| 20260502000405 | 61 | 14 | 1.7 | 7.0 | 0.11 | 2.10 | 2.10 | 91 | 1011.3 |
| 20260501235902 | 61 | 304 | 2.6 | 7.0 | 0.08 | 2.07 | 2.08 | 91 | 1011.4 |
| 20260501235402 | 61 | 40 | 1.7 | 7.0 | 0.05 | 2.04 | 2.05 | 91 | 1011.5 |
| 20260501234903 | 61 | 0 | 1.7 | 7.0 | 0.05 | 2.03 | 2.03 | 91 | 1011.5 |
| 20260501234631 | 61 | 55 | 2.6 | 7.8 | 0.05 | 2.03 | 2.03 | 91 | 1011.3 |
| 20260501233901 | 61 | 32 | 2.6 | 7.8 | 0.04 | 2.02 | 2.02 | 91 | 1010.5 |
| 20260501233358 | 61 | 60 | 1.7 | 7.0 | 0.04 | 2.02 | 2.02 | 91 | 1010.1 |
| 20260501233132 | 61 | 350 | 1.7 | 7.8 | 0.03 | 2.01 | 2.01 | 91 | 1010.2 |
| 20260501232358 | 61 | 30 | 1.7 | 7.8 | 0.03 | 2.01 | 2.01 | 91 | 1010.1 |
| 20260501232130 | 62 | 0 | 1.7 | 7.8 | 0.02 | 2.00 | 2.00 | 91 | 1010.3 |
| 20260501231400 | 62 | 74 | 2.6 | 7.8 | 0.01 | 1.99 | 1.99 | 91 | 1010.7 |
| 20260501230854 | 62 | 22 | 1.7 | 7.0 | 0.02 | 1.99 | 1.99 | 91 | 1011.1 |
| 20260501230352 | 62 | 334 | 1.7 | 11.3 | 0.02 | 1.99 | 1.99 | 91 | 1010.7 |
| 20260501225854 | 62 | 71 | 1.7 | 11.3 | 0.03 | 1.99 | 1.99 | 91 | 1010.4 |
| 20260501225349 | 62 | 9 | 1.7 | 7.0 | 0.05 | 1.99 | 1.99 | 91 | 1010.4 |
| 20260501224851 | 62 | 22 | 1.7 | 4.3 | 0.07 | 1.98 | 1.98 | 91 | 1010.3 |
| 20260501224352 | 62 | 5 | 1.7 | 4.3 | 0.09 | 1.98 | 1.98 | 91 | 1009.8 |
| 20260501223851 | 62 | 0 | 1.7 | 3.5 | 0.11 | 1.98 | 1.98 | 91 | 1009.9 |
| 20260501223348 | 62 | 38 | 1.7 | 3.5 | 0.14 | 1.98 | 1.98 | 91 | 1010.1 |
| 20260501222850 | 62 | 52 | 1.7 | 6.1 | 0.17 | 1.98 | 1.98 | 91 | 1009.8 |
| 20260501222342 | 62 | 50 | 1.7 | 6.1 | 0.23 | 1.98 | 1.98 | 91 | 1009.7 |
| 20260501222114 | 63 | 22 | 1.7 | 7.0 | 0.24 | 1.98 | 1.98 | 91 | 1009.7 |
| 20260501221343 | 63 | 59 | 1.7 | 7.0 | 0.25 | 1.98 | 1.98 | 91 | 1010.0 |
| 20260501220842 | 63 | 26 | 1.7 | 5.2 | 0.24 | 1.97 | 1.97 | 91 | 1010.2 |
| 20260501220343 | 63 | 5 | 1.7 | 7.0 | 0.24 | 1.97 | 1.97 | 91 | 1010.1 |
| 20260501220115 | 63 | 355 | 1.7 | 7.0 | 0.24 | 1.96 | 1.96 | 91 | 1010.3 |
| 20260501215341 | 63 | 355 | 1.7 | 6.1 | 0.22 | 1.94 | 1.94 | 91 | 1010.5 |
| 20260501214841 | 63 | 65 | 1.7 | 7.0 | 0.20 | 1.91 | 1.91 | 91 | 1010.3 |
| 20260501214343 | 63 | 65 | 2.6 | 7.0 | 0.20 | 1.89 | 1.89 | 91 | 1010.8 |
| 20260501214109 | 63 | 108 | 2.6 | 7.0 | 0.20 | 1.87 | 1.87 | 91 | 1010.4 |
| 20260501213337 | 63 | 0 | 1.7 | 7.0 | 0.20 | 1.84 | 1.85 | 91 | 1010.2 |
| 20260501212838 | 63 | 348 | 1.7 | 5.2 | 0.17 | 1.79 | 1.80 | 91 | 1010.8 |
| 20260501212336 | 63 | 331 | 1.7 | 5.2 | 0.15 | 1.75 | 1.75 | 91 | 1010.4 |
| 20260501211836 | 63 | 329 | 0.9 | 4.3 | 0.16 | 1.73 | 1.74 | 91 | 1010.6 |
| 20260501211336 | 63 | 305 | 1.7 | 9.6 | 0.17 | 1.73 | 1.73 | 91 | 1010.6 |
| 20260501211105 | 63 | 342 | 1.7 | 9.6 | 0.18 | 1.73 | 1.73 | 91 | 1010.2 |
| 20260501210336 | 63 | 20 | 2.6 | 9.6 | 0.18 | 1.73 | 1.73 | 91 | 1009.5 |
| 20260501205832 | 63 | 9 | 2.6 | 9.6 | 0.17 | 1.72 | 1.72 | 91 | 1008.9 |
| 20260501205331 | 63 | 39 | 1.7 | 7.8 | 0.17 | 1.72 | 1.72 | 91 | 1008.9 |
| 20260501204832 | 63 | 304 | 1.7 | 5.2 | 0.16 | 1.71 | 1.71 | 91 | 1008.7 |
| 20260501204331 | 63 | 29 | 2.6 | 5.2 | 0.15 | 1.69 | 1.69 | 91 | 1008.7 |
| 20260501203830 | 64 | 40 | 1.7 | 5.2 | 0.12 | 1.66 | 1.66 | 91 | 1008.6 |
| 20260501203330 | 64 | 67 | 0.9 | 3.5 | 0.11 | 1.64 | 1.64 | 91 | 1009.7 |
| 20260501202830 | 64 | 12 | 0.9 | 3.5 | 0.10 | 1.62 | 1.62 | 91 | 1010.0 |
| 20260501202331 | 64 | 32 | 1.7 | 4.3 | 0.09 | 1.60 | 1.60 | 91 | 1009.8 |
| 20260501201829 | 64 | 33 | 0.9 | 4.3 | 0.09 | 1.57 | 1.58 | 91 | 1009.7 |
| 20260501201328 | 64 | 318 | 0.9 | 3.5 | 0.09 | 1.56 | 1.56 | 91 | 1009.8 |
| 20260501200824 | 64 | 350 | 1.7 | 7.0 | 0.08 | 1.55 | 1.55 | 91 | 1009.4 |
| 20260501200324 | 64 | 355 | 1.7 | 7.0 | 0.09 | 1.55 | 1.55 | 91 | 1008.6 |
| 20260501200056 | 64 | 22 | 1.7 | 4.3 | 0.09 | 1.55 | 1.55 | 91 | 1008.4 |
| 20260501195556 | 64 | 37 | 0.9 | 3.5 | 0.10 | 1.55 | 1.55 | 91 | 1008.7 |
| 20260501194825 | 64 | 355 | 0.9 | 3.5 | 0.11 | 1.55 | 1.55 | 91 | 1008.7 |
| 20260501194324 | 64 | 355 | 1.7 | 4.3 | 0.13 | 1.54 | 1.54 | 91 | 1008.3 |
| 20260501193824 | 64 | 11 | 1.7 | 4.3 | 0.31 | 1.54 | 1.54 | 91 | 1008.6 |
| 20260501193325 | 64 | 28 | 1.7 | 4.3 | 0.53 | 1.53 | 1.53 | 91 | 1008.1 |
| 20260501193055 | 64 | 341 | 1.7 | 4.3 | 0.53 | 1.52 | 1.53 | 91 | 1008.9 |
| 20260501192324 | 64 | 341 | 0.9 | 3.5 | 0.52 | 1.51 | 1.51 | 91 | 1008.7 |
| 20260501191824 | 64 | 47 | 0.9 | 4.3 | 0.50 | 1.48 | 1.48 | 91 | 1008.5 |
| 20260501191325 | 64 | 329 | 1.7 | 4.3 | 0.50 | 1.47 | 1.47 | 91 | 1009.2 |
| 20260501190823 | 64 | 333 | 1.7 | 4.3 | 0.55 | 1.47 | 1.47 | 91 | 1009.2 |
| 20260501190324 | 64 | 51 | 1.7 | 5.2 | 0.69 | 1.46 | 1.46 | 91 | 1008.7 |
| 20260501185825 | 64 | 45 | 1.7 | 5.2 | 0.75 | 1.46 | 1.46 | 91 | 1008.2 |
| 20260501185324 | 64 | 35 | 1.7 | 3.5 | 0.75 | 1.45 | 1.45 | 91 | 1008.3 |
| 20260501184823 | 64 | 67 | 1.7 | 5.2 | 0.75 | 1.44 | 1.44 | 91 | 1008.4 |
| 20260501184554 | 64 | 137 | 1.7 | 5.2 | 0.73 | 1.41 | 1.41 | 91 | 1009.1 |
| 20260501184054 | 64 | 317 | 1.7 | 6.1 | 0.58 | 1.23 | 1.23 | 91 | 1009.2 |
| 20260501183325 | 64 | 85 | 2.6 | 6.1 | 0.36 | 1.00 | 1.01 | 91 | 1009.2 |
| 20260501182825 | 64 | 219 | 2.6 | 6.1 | 0.35 | 0.99 | 0.99 | 91 | 1010.7 |
| 20260501182323 | 64 | 254 | 1.7 | 6.1 | 0.35 | 0.99 | 0.99 | 91 | 1008.6 |